Time;durP1;ratioP1;P1;durP2;ratioP2;P2;SDS_P1;SDS_P2;PMS_P1;PMS_P2;Temp;Humidity;BMP_temperature;BMP_pressure;BME280_temperature;BME280_humidity;BME280_pressure;Samples;Min_cycle;Max_cycle;Signal;HPM_P1;HPM_P2
2022/03/30 00:02:04;;;;;;;12.67;11.77;;;;;;;3.72;87.39;100848.66;5052540;28;20580;-45
2022/03/30 00:04:32;;;;;;;11.33;10.53;;;;;;;3.71;87.47;100850.44;5052124;28;20455;-45
2022/03/30 00:06:59;;;;;;;11.90;10.90;;;;;;;3.60;87.05;100841.94;5052641;28;20798;-46
2022/03/30 00:09:27;;;;;;;11.63;10.47;;;;;;;3.58;87.19;100843.91;5052489;28;20448;-44
2022/03/30 00:11:56;;;;;;;12.37;11.43;;;;;;;3.58;86.98;100847.38;5052301;28;20434;-46
2022/03/30 00:14:25;;;;;;;11.70;10.80;;;;;;;3.65;86.98;100851.03;5052326;28;20466;-46
2022/03/30 00:16:52;;;;;;;12.00;10.87;;;;;;;3.64;87.22;100849.41;5052558;28;20904;-47
2022/03/30 00:19:21;;;;;;;11.20;10.53;;;;;;;3.63;86.78;100852.19;5052376;28;20432;-45
2022/03/30 00:21:48;;;;;;;11.83;10.90;;;;;;;3.58;86.60;100847.38;5052125;28;20435;-45
2022/03/30 00:24:16;;;;;;;10.83;10.27;;;;;;;3.50;86.34;100839.34;5051852;28;20471;-44
2022/03/30 00:26:44;;;;;;;12.73;10.27;;;;;;;3.56;86.97;100848.47;5052439;28;20427;-46
2022/03/30 00:29:12;;;;;;;11.10;10.40;;;;;;;3.57;86.68;100850.97;5052374;28;20431;-45
2022/03/30 00:31:41;;;;;;;11.50;10.10;;;;;;;3.61;86.82;100849.69;5052047;28;20431;-45
2022/03/30 00:34:08;;;;;;;11.17;10.47;;;;;;;3.63;86.66;100842.47;5051548;28;20467;-44
2022/03/30 00:36:36;;;;;;;13.53;12.10;;;;;;;3.67;86.85;100849.09;5052338;28;20427;-46
2022/03/30 00:39:04;;;;;;;11.10;10.30;;;;;;;3.62;86.04;100838.16;5052230;28;20431;-46
2022/03/30 00:41:31;;;;;;;12.17;11.40;;;;;;;3.61;85.97;100839.16;5051861;28;20959;-46
2022/03/30 00:43:59;;;;;;;11.50;10.70;;;;;;;3.63;85.60;100833.72;5051372;28;20834;-45
2022/03/30 00:46:26;;;;;;;11.63;10.73;;;;;;;3.65;85.68;100837.84;5043599;28;20436;-45
2022/03/30 00:48:55;;;;;;;12.30;11.40;;;;;;;3.62;85.31;100832.03;5051378;28;20786;-45
2022/03/30 00:51:23;;;;;;;12.30;11.40;;;;;;;3.60;85.74;100828.75;5051857;28;20454;-44
2022/03/30 00:53:51;;;;;;;12.07;11.37;;;;;;;3.57;85.82;100832.50;5051437;28;20510;-44
2022/03/30 00:56:18;;;;;;;12.20;11.40;;;;;;;3.57;86.29;100837.78;5051907;28;20442;-45
2022/03/30 00:58:46;;;;;;;11.23;10.63;;;;;;;3.54;85.95;100824.91;5051859;28;20436;-44
2022/03/30 01:01:14;;;;;;;12.00;11.00;;;;;;;3.54;85.63;100824.91;5051446;28;20431;-47
2022/03/30 01:03:42;;;;;;;11.90;10.90;;;;;;;3.48;85.69;100822.84;5050926;28;21068;-45
2022/03/30 01:06:11;;;;;;;12.03;11.10;;;;;;;3.49;85.55;100819.25;5051845;28;20427;-47
2022/03/30 01:08:38;;;;;;;15.67;12.00;;;;;;;3.51;86.07;100817.28;5051730;28;20427;-45
2022/03/30 01:11:07;;;;;;;12.97;10.77;;;;;;;3.50;85.72;100822.69;5051566;28;20439;-45
2022/03/30 01:13:35;;;;;;;11.57;10.77;;;;;;;3.47;85.84;100823.81;5051176;28;20458;-45
2022/03/30 01:16:23;;;;;;;11.90;11.00;;;;;;;3.49;85.85;100818.41;5051803;28;20432;-46
2022/03/30 01:19:02;;;;;;;12.60;11.70;;;;;;;3.45;85.79;100815.25;5051710;28;21006;-45
2022/03/30 01:21:31;;;;;;;11.87;11.20;;;;;;;3.46;85.53;100808.16;5051409;28;20427;-46
2022/03/30 01:23:58;;;;;;;14.17;13.03;;;;;;;3.37;85.40;100807.25;5050820;28;20459;-49
2022/03/30 01:26:26;;;;;;;12.10;11.50;;;;;;;3.41;85.68;100805.13;5051716;28;20431;-44
2022/03/30 01:28:54;;;;;;;14.83;13.70;;;;;;;3.38;85.48;100810.69;5051375;28;20438;-46
2022/03/30 01:34:07;;;;;;;12.17;11.50;;;;;;;3.22;85.83;100795.56;5051070;28;20853;-46
2022/03/30 01:36:36;;;;;;;12.57;11.50;;;;;;;3.17;85.85;100795.16;5051377;28;20431;-45
2022/03/30 01:39:04;;;;;;;13.20;12.10;;;;;;;3.12;85.94;100792.97;5051390;28;20917;-45
2022/03/30 01:41:32;;;;;;;12.90;11.87;;;;;;;3.07;86.30;100799.66;5051305;28;20802;-47
2022/03/30 01:44:00;;;;;;;13.00;12.07;;;;;;;3.01;86.14;100792.34;5050795;28;20463;-45
2022/03/30 01:46:28;;;;;;;12.00;11.07;;;;;;;2.94;87.17;100789.47;5043018;28;20436;-47
2022/03/30 01:48:56;;;;;;;12.20;11.23;;;;;;;2.94;86.91;100788.63;5051347;28;20435;-46
2022/03/30 01:51:23;;;;;;;11.30;10.70;;;;;;;2.87;86.83;100787.56;5051123;28;20466;-45
2022/03/30 01:53:52;;;;;;;12.20;11.37;;;;;;;2.83;87.78;100786.19;5051020;28;20829;-48
2022/03/30 01:56:22;;;;;;;12.27;11.67;;;;;;;2.79;87.89;100783.84;5051697;28;20427;-51
2022/03/30 01:58:49;;;;;;;12.20;11.40;;;;;;;2.80;87.73;100787.31;5051651;28;20434;-46
2022/03/30 02:01:17;;;;;;;12.23;11.33;;;;;;;2.77;87.62;100783.19;5054934;28;20431;-52
2022/03/30 02:03:43;;;;;;;11.20;10.70;;;;;;;2.77;87.47;100784.97;5054483;28;20461;-48
2022/03/30 02:06:12;;;;;;;11.00;10.60;;;;;;;2.73;87.54;100786.22;5055132;28;20471;-50
2022/03/30 02:08:40;;;;;;;11.70;11.00;;;;;;;2.71;87.99;100785.56;5055131;28;20465;-49
2022/03/30 02:11:09;;;;;;;13.20;12.00;;;;;;;2.70;88.19;100781.25;5054702;28;20457;-50
2022/03/30 02:13:36;;;;;;;12.83;12.13;;;;;;;2.69;88.08;100769.06;5054285;28;20965;-48
2022/03/30 02:16:04;;;;;;;13.30;12.40;;;;;;;2.64;88.35;100766.88;5054639;28;20441;-50
2022/03/30 02:18:32;;;;;;;11.83;11.20;;;;;;;2.67;88.37;100757.84;5054681;28;20492;-50
2022/03/30 02:20:59;;;;;;;12.07;11.30;;;;;;;2.71;88.26;100764.50;5054660;28;20437;-52
2022/03/30 02:23:27;;;;;;;11.20;10.70;;;;;;;2.73;88.28;100760.75;5054014;28;20455;-49
2022/03/30 02:25:55;;;;;;;12.27;11.43;;;;;;;2.76;88.15;100760.44;5054693;28;20434;-46
2022/03/30 02:28:24;;;;;;;13.20;12.40;;;;;;;2.73;87.86;100758.09;5054603;28;20489;-50
2022/03/30 02:30:51;;;;;;;12.77;12.00;;;;;;;2.73;87.82;100752.84;5054168;28;20431;-49
2022/03/30 02:33:19;;;;;;;12.57;11.83;;;;;;;2.77;87.95;100762.13;5053850;28;20455;-48
2022/03/30 02:35:46;;;;;;;12.20;11.70;;;;;;;2.77;87.61;100758.66;5054317;28;20431;-50
2022/03/30 02:38:14;;;;;;;12.43;11.60;;;;;;;2.81;87.78;100757.34;5054674;28;20797;-51
2022/03/30 02:40:42;;;;;;;12.10;11.60;;;;;;;2.83;87.37;100752.78;5054210;28;20433;-51
2022/03/30 02:43:10;;;;;;;12.90;12.10;;;;;;;2.83;87.52;100750.16;5053609;28;20496;-51
2022/03/30 02:45:39;;;;;;;11.80;10.57;;;;;;;2.84;87.38;100751.81;5050442;28;20432;-50
2022/03/30 02:48:19;;;;;;;11.00;10.47;;;;;;;2.84;87.31;100745.72;5050240;28;20428;-48
2022/03/30 02:50:48;;;;;;;11.70;10.77;;;;;;;2.83;87.18;100754.59;5054038;28;20427;-51
2022/03/30 02:53:16;;;;;;;11.87;11.10;;;;;;;2.84;86.65;100753.63;5053553;28;20477;-48
2022/03/30 02:55:45;;;;;;;11.70;11.20;;;;;;;2.82;86.61;100760.81;5054068;28;20434;-47
2022/03/30 02:58:13;;;;;;;12.23;11.70;;;;;;;2.83;86.92;100754.59;5054171;28;20435;-50
2022/03/30 03:00:43;;;;;;;12.50;11.50;;;;;;;2.85;86.86;100752.63;5053909;28;20434;-48
2022/03/30 03:03:11;;;;;;;11.90;11.20;;;;;;;2.83;87.98;100749.31;5053227;28;21194;-50
2022/03/30 03:05:41;;;;;;;11.70;10.90;;;;;;;2.83;88.00;100739.63;5053709;28;21047;-47
2022/03/30 03:08:11;;;;;;;12.10;11.30;;;;;;;2.86;87.98;100743.78;5053809;28;20865;-47
2022/03/30 03:10:41;;;;;;;12.03;11.30;;;;;;;2.89;88.04;100746.09;5053483;28;20442;-48
2022/03/30 03:13:09;;;;;;;12.00;11.30;;;;;;;2.91;88.18;100744.16;5053452;28;20453;-48
2022/03/30 03:15:38;;;;;;;12.63;12.03;;;;;;;2.91;88.10;100747.63;5053875;28;20420;-49
2022/03/30 03:18:07;;;;;;;11.83;11.33;;;;;;;2.91;87.34;100744.97;5053635;28;20474;-49
2022/03/30 03:20:35;;;;;;;12.70;11.57;;;;;;;2.91;87.39;100744.97;5053389;28;20806;-50
2022/03/30 03:23:04;;;;;;;12.30;11.60;;;;;;;2.91;87.39;100741.50;5053682;28;20447;-50
2022/03/30 03:25:33;;;;;;;13.43;12.07;;;;;;;2.90;86.97;100747.78;5053453;28;20972;-47
2022/03/30 03:28:01;;;;;;;12.13;11.47;;;;;;;2.86;86.92;100736.69;5053636;28;20522;-47
2022/03/30 03:30:29;;;;;;;15.67;12.17;;;;;;;2.86;86.83;100738.50;5053360;28;20521;-50
2022/03/30 03:32:57;;;;;;;12.70;12.13;;;;;;;2.80;86.13;100739.91;5053297;28;20448;-50
2022/03/30 03:35:27;;;;;;;13.60;12.60;;;;;;;2.76;86.22;100736.75;5052730;28;20459;-48
2022/03/30 03:37:55;;;;;;;12.37;11.77;;;;;;;2.71;86.36;100743.44;5053438;28;20435;-51
2022/03/30 03:40:23;;;;;;;11.70;11.10;;;;;;;2.68;86.41;100744.56;5052968;28;20930;-46
2022/03/30 03:42:50;;;;;;;11.63;11.33;;;;;;;2.63;85.98;100740.69;5053176;28;20463;-46
2022/03/30 03:45:18;;;;;;;12.00;11.30;;;;;;;2.54;85.84;100742.38;5051458;28;20482;-50
2022/03/30 03:47:47;;;;;;;12.27;11.67;;;;;;;2.49;86.06;100743.78;5046094;28;20433;-50
2022/03/30 03:50:15;;;;;;;12.67;11.83;;;;;;;2.41;87.00;100743.69;5052831;28;20435;-48
2022/03/30 03:52:44;;;;;;;12.67;12.17;;;;;;;2.38;87.33;100744.81;5052872;28;20443;-46
2022/03/30 03:55:12;;;;;;;12.40;11.40;;;;;;;2.34;87.28;100748.69;5052312;28;20482;-47
2022/03/30 03:57:40;;;;;;;11.50;11.10;;;;;;;2.28;87.19;100740.53;5051982;28;20431;-49
2022/03/30 04:00:10;;;;;;;12.43;11.70;;;;;;;2.26;87.31;100745.13;5052776;28;20436;-47
2022/03/30 04:02:38;;;;;;;12.60;11.80;;;;;;;2.19;87.37;100743.06;5052718;28;20448;-49
2022/03/30 04:05:08;;;;;;;11.80;11.10;;;;;;;2.09;86.95;100747.50;5052148;28;21001;-50
2022/03/30 04:07:37;;;;;;;12.23;11.53;;;;;;;2.01;86.88;100739.50;5052984;28;20954;-46
2022/03/30 04:10:08;;;;;;;12.60;11.80;;;;;;;1.92;86.50;100742.97;5052595;28;20442;-46
2022/03/30 04:12:35;;;;;;;12.40;11.90;;;;;;;1.87;86.96;100734.69;5052650;28;20802;-47
2022/03/30 04:15:04;;;;;;;23.33;13.40;;;;;;;1.79;86.61;100739.84;5051861;28;20470;-47
2022/03/30 04:17:32;;;;;;;12.80;12.30;;;;;;;1.71;86.76;100737.06;5052599;28;20438;-52
2022/03/30 04:20:00;;;;;;;13.67;12.77;;;;;;;1.63;86.31;100736.94;5052575;28;20430;-48
2022/03/30 04:22:28;;;;;;;13.80;13.20;;;;;;;1.57;87.17;100735.69;5051442;28;20479;-44
2022/03/30 04:24:56;;;;;;;14.60;13.90;;;;;;;1.54;86.92;100735.97;5051679;28;20565;-51
2022/03/30 04:27:25;;;;;;;13.90;13.10;;;;;;;1.48;86.99;100739.16;5052230;28;21041;-45
2022/03/30 04:29:53;;;;;;;13.37;12.77;;;;;;;1.45;87.02;100742.06;5052406;28;20439;-50
2022/03/30 04:32:21;;;;;;;14.23;13.50;;;;;;;1.46;87.43;100737.63;5052166;28;20452;-47
2022/03/30 04:34:48;;;;;;;14.53;13.60;;;;;;;1.43;88.70;100736.13;5051654;28;20459;-45
2022/03/30 04:37:17;;;;;;;15.30;14.30;;;;;;;1.44;88.78;100742.19;5052186;28;20431;-51
2022/03/30 04:39:45;;;;;;;14.33;13.50;;;;;;;1.43;89.79;100736.13;5052149;28;20435;-48
2022/03/30 04:42:13;;;;;;;15.27;14.13;;;;;;;1.43;91.73;100744.00;5051573;28;20433;-47
2022/03/30 04:44:42;;;;;;;14.20;12.87;;;;;;;1.45;93.04;100735.97;5051571;28;20471;-49
2022/03/30 04:47:10;;;;;;;13.60;13.10;;;;;;;1.47;92.64;100737.47;5052093;28;20431;-48
2022/03/30 04:49:38;;;;;;;13.07;12.50;;;;;;;1.47;92.66;100741.91;5052026;28;20437;-47
2022/03/30 04:52:06;;;;;;;13.97;13.27;;;;;;;1.46;92.70;100737.63;5051999;28;20435;-48
2022/03/30 04:54:34;;;;;;;13.90;12.83;;;;;;;1.40;93.17;100735.56;5051368;28;20463;-48
2022/03/30 04:57:02;;;;;;;14.93;13.60;;;;;;;1.36;94.62;100750.75;5051631;28;20440;-45
2022/03/30 04:59:29;;;;;;;14.97;13.60;;;;;;;1.32;95.25;100741.47;5051940;28;20814;-45
2022/03/30 05:01:59;;;;;;;13.30;12.60;;;;;;;1.32;95.41;100746.75;5051580;28;20939;-45
2022/03/30 05:04:29;;;;;;;13.20;12.70;;;;;;;1.32;94.94;100743.28;5051240;28;20996;-47
2022/03/30 05:06:56;;;;;;;14.10;13.00;;;;;;;1.36;95.29;100748.13;5051650;28;20465;-52
2022/03/30 05:09:24;;;;;;;13.70;12.80;;;;;;;1.40;95.76;100751.31;5051534;28;20438;-50
2022/03/30 05:11:52;;;;;;;13.97;13.23;;;;;;;1.42;95.16;100739.72;5051262;28;20427;-47
2022/03/30 05:14:19;;;;;;;13.63;12.77;;;;;;;1.44;95.34;100735.13;5051056;28;20554;-48
2022/03/30 05:16:47;;;;;;;13.63;12.73;;;;;;;1.45;94.84;100744.69;5051538;28;20423;-45
2022/03/30 05:19:16;;;;;;;12.50;11.90;;;;;;;1.44;94.09;100742.19;5051734;28;20453;-48
2022/03/30 05:21:44;;;;;;;12.63;11.93;;;;;;;1.49;94.21;100745.25;5051272;28;20432;-46
2022/03/30 05:24:11;;;;;;;11.93;11.03;;;;;;;1.62;94.70;100746.63;5051016;28;20815;-45
2022/03/30 05:26:39;;;;;;;14.13;13.37;;;;;;;1.85;94.51;100738.44;5051569;28;20835;-45
2022/03/30 05:29:06;;;;;;;13.20;12.40;;;;;;;2.08;95.08;100737.16;5051559;28;20435;-48
2022/03/30 05:31:34;;;;;;;13.60;13.00;;;;;;;2.29;94.97;100750.94;5051437;28;20431;-45
2022/03/30 05:34:02;;;;;;;13.10;12.40;;;;;;;2.44;94.34;100749.50;5052612;28;20473;-46
2022/03/30 05:36:31;;;;;;;12.40;11.13;;;;;;;2.58;93.08;100745.56;5055478;28;20917;-46
2022/03/30 05:38:59;;;;;;;13.33;12.53;;;;;;;2.79;92.45;100748.78;5055772;28;20831;-45
2022/03/30 05:41:27;;;;;;;13.10;12.50;;;;;;;3.12;93.13;100742.91;5055313;28;20457;-47
2022/03/30 05:43:54;;;;;;;14.17;13.30;;;;;;;3.40;93.10;100729.69;5077756;22;20461;-48
2022/03/30 05:46:22;;;;;;;12.67;12.00;;;;;;;3.85;93.96;100733.03;5043160;28;20471;-45
2022/03/30 05:48:51;;;;;;;10.53;10.03;;;;;;;4.68;95.17;100731.53;5035706;28;20432;-48
2022/03/30 05:51:19;;;;;;;9.17;8.57;;;;;;;5.71;96.55;100737.22;5035530;28;20435;-47
2022/03/30 05:53:49;;;;;;;8.57;7.87;;;;;;;6.56;95.67;100725.22;5035000;28;20456;-47
2022/03/30 05:56:16;;;;;;;9.33;8.30;;;;;;;7.19;87.79;100722.41;5035174;28;20431;-47
2022/03/30 05:58:44;;;;;;;9.10;8.30;;;;;;;7.72;82.16;100735.63;5035286;28;20436;-46
2022/03/30 06:01:12;;;;;;;9.20;8.80;;;;;;;8.15;76.31;100733.28;5034848;28;20791;-45
2022/03/30 06:03:40;;;;;;;9.57;9.07;;;;;;;8.56;70.36;100731.03;5034728;28;20522;-45
2022/03/30 06:06:14;;;;;;;10.10;9.13;;;;;;;8.96;67.85;100722.53;5035013;28;21025;-45
2022/03/30 06:08:42;;;;;;;10.80;9.73;;;;;;;9.39;65.17;100729.59;5035081;28;20436;-48
2022/03/30 06:11:10;;;;;;;9.90;9.20;;;;;;;9.91;63.91;100723.13;5034686;28;20436;-45
2022/03/30 06:13:38;;;;;;;11.97;9.90;;;;;;;10.33;59.51;100731.06;5034486;28;20535;-48
2022/03/30 06:16:06;;;;;;;10.00;9.10;;;;;;;10.47;57.24;100735.44;5035126;28;20428;-48
2022/03/30 06:18:34;;;;;;;9.30;8.50;;;;;;;10.86;57.40;100726.81;5034813;28;20535;-45
2022/03/30 06:21:03;;;;;;;13.57;8.53;;;;;;;11.30;58.07;100729.03;5034673;28;20440;-45
2022/03/30 06:23:32;;;;;;;8.00;7.30;;;;;;;11.79;57.04;100727.91;5034381;28;20463;-48
2022/03/30 06:26:01;;;;;;;7.67;7.03;;;;;;;11.98;54.84;100732.44;5034696;28;20537;-47
2022/03/30 06:28:30;;;;;;;7.87;6.20;;;;;;;12.03;53.22;100738.00;5034564;28;20450;-46
2022/03/30 06:30:58;;;;;;;7.10;6.43;;;;;;;12.17;51.64;100740.47;5034659;28;20432;-48
2022/03/30 06:33:25;;;;;;;6.80;6.30;;;;;;;12.21;48.68;100739.00;5034281;28;20460;-46
2022/03/30 06:35:53;;;;;;;7.57;6.93;;;;;;;12.30;47.11;100736.94;5034635;28;20452;-44
2022/03/30 06:38:21;;;;;;;8.10;7.40;;;;;;;12.43;50.44;100741.44;5034581;28;20436;-44
2022/03/30 06:40:49;;;;;;;9.63;6.97;;;;;;;12.73;50.49;100743.44;5034206;28;20443;-44
2022/03/30 06:43:17;;;;;;;7.50;6.90;;;;;;;12.42;47.06;100748.66;5033935;28;20539;-44
2022/03/30 06:45:46;;;;;;;6.60;5.93;;;;;;;12.33;49.64;100738.38;5028922;28;20476;-44
2022/03/30 06:48:14;;;;;;;6.67;5.63;;;;;;;12.37;49.20;100739.59;5030931;28;20420;-45
2022/03/30 06:50:42;;;;;;;7.40;6.80;;;;;;;12.20;49.51;100748.06;5033905;28;20494;-45
2022/03/30 06:53:10;;;;;;;8.70;7.83;;;;;;;12.06;47.42;100738.41;5033596;28;20439;-45
2022/03/30 06:55:40;;;;;;;9.53;8.83;;;;;;;11.59;48.02;100742.03;5034034;28;20967;-45
2022/03/30 06:58:07;;;;;;;10.63;10.03;;;;;;;11.49;51.60;100733.59;5033954;28;20436;-44
2022/03/30 07:00:35;;;;;;;13.57;12.40;;;;;;;11.65;50.41;100740.38;5033760;28;20436;-47
2022/03/30 07:03:05;;;;;;;14.27;13.27;;;;;;;11.57;50.54;100738.75;5033227;28;20444;-45
2022/03/30 07:05:33;;;;;;;15.57;14.70;;;;;;;11.39;49.10;100737.69;5033881;28;20835;-45
2022/03/30 07:10:46;;;;;;;16.23;15.50;;;;;;;10.96;50.45;100732.59;5034020;28;20432;-47
2022/03/30 07:13:13;;;;;;;17.70;16.60;;;;;;;10.65;51.14;100744.78;5033454;28;20849;-44
2022/03/30 07:15:41;;;;;;;16.93;16.03;;;;;;;10.23;52.87;100737.72;5033605;28;21005;-45
2022/03/30 07:18:10;;;;;;;16.97;16.00;;;;;;;9.81;53.94;100739.44;5033793;28;20460;-44
2022/03/30 07:20:38;;;;;;;17.50;16.10;;;;;;;9.24;55.14;100734.16;5033363;28;20428;-44
2022/03/30 07:23:06;;;;;;;15.57;14.87;;;;;;;8.06;58.59;100735.19;5033319;28;20432;-44
2022/03/30 07:25:34;;;;;;;15.40;14.30;;;;;;;7.73;62.10;100739.97;5033617;28;20491;-44
2022/03/30 07:28:03;;;;;;;15.40;14.60;;;;;;;7.72;62.50;100745.44;5033766;28;20476;-44
2022/03/30 07:30:32;;;;;;;15.53;14.53;;;;;;;7.41;63.07;100739.34;5033421;28;20470;-42
2022/03/30 07:33:01;;;;;;;14.70;13.90;;;;;;;7.30;64.17;100747.72;5033560;28;20500;-43
2022/03/30 07:35:32;;;;;;;14.97;14.03;;;;;;;7.02;65.66;100742.06;5033451;28;20455;-44
2022/03/30 07:38:01;;;;;;;15.40;14.53;;;;;;;6.88;66.80;100740.13;5033743;28;20776;-45
2022/03/30 07:40:29;;;;;;;15.47;14.67;;;;;;;6.60;68.50;100750.38;5033372;28;20443;-43
2022/03/30 07:42:57;;;;;;;16.00;14.90;;;;;;;6.40;69.82;100739.31;5033725;28;20432;-44
2022/03/30 07:45:26;;;;;;;14.57;13.87;;;;;;;6.36;71.53;100740.63;5032693;28;20834;-43
2022/03/30 07:47:54;;;;;;;14.97;14.17;;;;;;;6.58;73.45;100736.44;5033433;28;20476;-43
2022/03/30 07:50:21;;;;;;;16.87;15.90;;;;;;;6.88;71.59;100738.31;5033063;28;20436;-45
2022/03/30 07:52:51;;;;;;;17.33;16.17;;;;;;;7.22;68.88;100733.50;5033167;28;20811;-44
2022/03/30 07:55:18;;;;;;;17.97;16.60;;;;;;;7.46;66.89;100727.22;5032317;28;20482;-44
2022/03/30 07:57:46;;;;;;;17.90;16.67;;;;;;;7.97;66.20;100724.81;5032189;28;20538;-43
2022/03/30 08:00:17;;;;;;;17.10;16.00;;;;;;;8.33;65.35;100726.63;5032960;28;20444;-42
2022/03/30 08:02:46;;;;;;;17.87;16.43;;;;;;;7.93;62.49;100721.69;5033207;28;20523;-45
2022/03/30 08:05:15;;;;;;;17.20;16.10;;;;;;;7.94;63.86;100725.19;5032146;28;20472;-44
2022/03/30 08:07:46;;;;;;;17.60;16.30;;;;;;;8.23;64.11;100725.22;5033051;28;20467;-45
2022/03/30 08:10:15;;;;;;;16.73;15.93;;;;;;;8.27;62.92;100723.84;5033048;28;21031;-44
2022/03/30 08:12:42;;;;;;;18.20;16.90;;;;;;;8.16;62.46;100718.97;5032759;28;20428;-45
2022/03/30 08:15:12;;;;;;;16.40;15.60;;;;;;;7.97;64.18;100724.81;5032279;28;20469;-45
2022/03/30 08:17:41;;;;;;;17.90;16.50;;;;;;;7.73;63.29;100725.84;5032896;28;20527;-46
2022/03/30 08:20:12;;;;;;;17.50;16.30;;;;;;;7.73;63.09;100723.19;5032806;28;20429;-44
2022/03/30 08:22:39;;;;;;;17.70;16.20;;;;;;;7.87;63.77;100725.06;5032825;28;20432;-45
2022/03/30 08:25:10;;;;;;;17.43;16.00;;;;;;;7.74;62.03;100727.47;5032039;28;20468;-43
2022/03/30 08:27:46;;;;;;;16.03;14.93;;;;;;;7.40;62.10;100722.63;5032556;28;20889;-43
2022/03/30 08:30:13;;;;;;;17.60;16.60;;;;;;;7.62;63.64;100721.78;5032523;28;20447;-44
2022/03/30 08:32:41;;;;;;;17.70;16.70;;;;;;;7.57;62.81;100723.31;5032636;28;20439;-45
2022/03/30 08:35:11;;;;;;;13.20;12.47;;;;;;;7.58;61.25;100722.31;5031572;28;20479;-44
2022/03/30 08:37:38;;;;;;;16.73;15.63;;;;;;;8.00;62.79;100724.47;5032514;28;20803;-43
2022/03/30 08:40:08;;;;;;;14.70;13.80;;;;;;;8.50;59.55;100723.78;5032432;28;20444;-44
2022/03/30 08:42:38;;;;;;;11.63;10.93;;;;;;;8.35;59.64;100718.47;5032324;28;20435;-44
2022/03/30 08:45:08;;;;;;;10.93;9.93;;;;;;;8.42;58.46;100715.94;5031254;28;20474;-43
2022/03/30 08:47:36;;;;;;;10.20;9.60;;;;;;;8.52;58.68;100716.44;5023869;28;20834;-45
2022/03/30 08:50:05;;;;;;;10.20;9.40;;;;;;;8.60;58.93;100713.72;5031961;28;20785;-45
2022/03/30 08:52:33;;;;;;;11.13;10.10;;;;;;;8.23;59.22;100720.72;5031962;28;20490;-45
2022/03/30 08:55:02;;;;;;;9.80;9.00;;;;;;;8.01;58.30;100728.75;5031292;28;20835;-45
2022/03/30 08:57:29;;;;;;;9.27;8.77;;;;;;;7.92;58.83;100722.69;5032086;28;20439;-45
2022/03/30 08:59:59;;;;;;;9.40;8.57;;;;;;;7.66;59.40;100728.38;5031883;28;20450;-45
2022/03/30 09:02:36;;;;;;;9.07;8.27;;;;;;;7.94;60.71;100726.00;5031551;28;20424;-46
2022/03/30 09:05:15;;;;;;;8.33;7.63;;;;;;;8.40;57.12;100724.06;5031379;28;20468;-47
2022/03/30 09:07:44;;;;;;;6.73;6.13;;;;;;;8.79;57.10;100721.13;5031823;28;20475;-45
2022/03/30 09:10:18;;;;;;;6.40;6.00;;;;;;;9.00;56.01;100717.69;5031791;28;20450;-44
2022/03/30 09:12:47;;;;;;;5.97;5.57;;;;;;;9.17;56.38;100711.94;5032093;28;20417;-46
2022/03/30 09:15:15;;;;;;;5.67;5.23;;;;;;;9.42;53.03;100717.75;5031422;28;20467;-48
2022/03/30 09:17:59;;;;;;;5.67;5.37;;;;;;;9.51;51.08;100707.78;5031812;28;20428;-44
2022/03/30 09:20:35;;;;;;;6.03;5.17;;;;;;;9.66;52.07;100708.56;5031638;28;20436;-43
2022/03/30 09:23:04;;;;;;;6.17;5.57;;;;;;;9.68;50.31;100701.19;5031354;28;20432;-44
2022/03/30 09:25:50;;;;;;;10.60;5.47;;;;;;;9.41;51.46;100702.78;5032155;28;20448;-44
2022/03/30 09:28:19;;;;;;;6.80;5.87;;;;;;;8.90;53.07;100702.84;5031790;28;20472;-43
2022/03/30 09:30:48;;;;;;;5.30;4.80;;;;;;;9.02;54.60;100703.19;5031506;28;20812;-45
2022/03/30 09:33:19;;;;;;;5.37;4.40;;;;;;;9.24;53.14;100702.22;5031274;28;20988;-43
2022/03/30 09:35:47;;;;;;;5.03;3.70;;;;;;;9.11;50.57;100694.06;5031599;28;20491;-44
2022/03/30 09:38:17;;;;;;;5.60;5.10;;;;;;;8.60;52.22;100690.59;5031941;28;20460;-45
2022/03/30 09:40:47;;;;;;;4.87;4.47;;;;;;;8.36;52.63;100695.41;5031532;28;20440;-44
2022/03/30 09:43:19;;;;;;;6.13;4.63;;;;;;;8.63;51.45;100702.72;5031221;28;20846;-46
2022/03/30 09:45:49;;;;;;;4.53;4.10;;;;;;;8.94;51.04;100689.16;5026439;28;20456;-43
2022/03/30 09:48:22;;;;;;;4.47;4.13;;;;;;;8.92;49.36;100692.03;5028674;28;20525;-44
2022/03/30 09:50:52;;;;;;;5.97;4.40;;;;;;;9.24;49.49;100688.06;5031404;28;20436;-44
2022/03/30 09:53:22;;;;;;;4.00;3.70;;;;;;;9.49;48.77;100683.22;5031199;28;20446;-45
2022/03/30 09:55:58;;;;;;;4.83;4.43;;;;;;;9.42;49.17;100689.28;5031349;28;20535;-44
2022/03/30 09:58:27;;;;;;;5.53;5.03;;;;;;;9.80;49.13;100687.16;5031344;28;20435;-44
2022/03/30 10:01:08;;;;;;;4.40;4.10;;;;;;;9.19;48.37;100691.31;5031097;28;20432;-45
2022/03/30 10:03:42;;;;;;;4.97;4.57;;;;;;;9.37;49.80;100685.56;5030982;28;20901;-44
2022/03/30 10:06:11;;;;;;;4.57;4.20;;;;;;;9.50;49.11;100683.00;5031522;28;20848;-44
2022/03/30 10:08:41;;;;;;;6.00;5.07;;;;;;;9.59;48.90;100689.06;5031209;28;20476;-44
2022/03/30 10:11:10;;;;;;;4.63;4.17;;;;;;;9.29;49.02;100690.97;5030839;28;20962;-44
2022/03/30 10:13:39;;;;;;;4.83;4.50;;;;;;;9.81;49.91;100678.16;5030852;28;20503;-43
2022/03/30 10:16:28;;;;;;;5.30;4.90;;;;;;;9.15;51.49;100683.88;5031451;28;20443;-45
2022/03/30 10:18:58;;;;;;;4.37;4.00;;;;;;;9.28;52.87;100684.88;5031245;28;20528;-46
2022/03/30 10:21:28;;;;;;;5.47;4.93;;;;;;;9.37;52.18;100677.56;5033284;28;20794;-45
2022/03/30 10:24:13;;;;;;;5.17;4.43;;;;;;;9.14;52.46;100683.06;5034453;28;20534;-44
2022/03/30 10:26:50;;;;;;;5.90;5.03;;;;;;;9.07;54.04;100674.19;5034839;28;20423;-45
2022/03/30 10:29:21;;;;;;;6.60;5.73;;;;;;;9.20;54.09;100673.53;5034900;28;20546;-43
2022/03/30 10:32:12;;;;;;;7.27;6.60;;;;;;;8.77;55.85;100673.47;5034461;28;20434;-46
2022/03/30 10:34:49;;;;;;;6.43;5.87;;;;;;;9.02;54.83;100681.91;5033722;28;20472;-43
2022/03/30 10:37:24;;;;;;;6.70;6.10;;;;;;;8.52;55.49;100680.06;5034695;28;20432;-44
2022/03/30 10:40:04;;;;;;;6.33;5.90;;;;;;;8.42;55.82;100678.72;5034503;28;20439;-46
2022/03/30 10:42:58;;;;;;;6.73;6.13;;;;;;;8.23;56.08;100683.53;5034280;28;20420;-46
2022/03/30 10:45:27;;;;;;;6.33;5.63;;;;;;;8.50;55.65;100679.44;5031888;28;20487;-45
2022/03/30 10:48:09;;;;;;;5.37;5.03;;;;;;;8.73;56.25;100674.81;5028332;28;20472;-43
2022/03/30 10:50:41;;;;;;;6.77;6.17;;;;;;;9.31;54.76;100667.69;5034465;28;20432;-45
2022/03/30 10:53:35;;;;;;;6.03;5.63;;;;;;;9.84;52.38;100664.47;5033649;28;20785;-44
2022/03/30 10:56:28;;;;;;;7.10;6.47;;;;;;;10.14;53.08;100667.78;5034384;28;20522;-45
2022/03/30 10:59:14;;;;;;;7.70;5.87;;;;;;;10.24;51.20;100662.94;5034104;28;20439;-45
2022/03/30 11:01:42;;;;;;;6.37;5.87;;;;;;;10.19;51.44;100652.00;5033953;28;20912;-45
2022/03/30 11:04:17;;;;;;;6.33;5.93;;;;;;;10.23;51.07;100660.44;5033517;28;20472;-43
2022/03/30 11:06:47;;;;;;;6.27;5.67;;;;;;;10.25;50.90;100664.56;5034155;28;20432;-44
2022/03/30 11:09:23;;;;;;;7.90;4.70;;;;;;;10.16;50.67;100659.56;5033926;28;20563;-48
2022/03/30 11:11:58;;;;;;;4.83;4.53;;;;;;;9.86;52.55;100665.09;5033579;28;20997;-45
2022/03/30 11:14:29;;;;;;;5.83;5.43;;;;;;;9.99;49.95;100656.38;5033556;28;20471;-45
2022/03/30 11:16:59;;;;;;;4.53;4.27;;;;;;;9.68;50.03;100662.06;5033922;28;20432;-43
2022/03/30 11:19:32;;;;;;;4.97;4.57;;;;;;;9.58;51.14;100661.59;5033754;28;20527;-44
2022/03/30 11:22:10;;;;;;;6.63;4.60;;;;;;;9.34;50.87;100659.31;5033422;28;20439;-44
2022/03/30 11:24:38;;;;;;;4.23;4.03;;;;;;;9.20;48.94;100661.03;5033241;28;20487;-45
2022/03/30 11:27:21;;;;;;;4.43;4.07;;;;;;;8.82;49.75;100662.25;5033802;28;20451;-43
2022/03/30 11:30:11;;;;;;;3.90;3.70;;;;;;;8.86;47.35;100663.53;5033599;28;20476;-44
2022/03/30 11:32:55;;;;;;;4.30;3.70;;;;;;;8.66;50.34;100668.59;5033395;28;20416;-44
2022/03/30 11:35:25;;;;;;;4.10;3.80;;;;;;;8.53;52.55;100652.50;5032891;28;20466;-44
2022/03/30 11:38:13;;;;;;;4.13;3.83;;;;;;;8.38;53.41;100648.19;5033286;28;20932;-44
2022/03/30 11:40:43;;;;;;;4.73;4.33;;;;;;;8.56;52.30;100641.50;5033315;28;20431;-46